Weather at Seattle Tacoma International Airport

Public forecast

Using degrees Fahrenheit for public forecast. Weather courtesy of forecast.io.

Current aviation weather report (METAR) for Seattle Tacoma International Airport

Retrieved 2021/01/23 11:53 UTC (38 minutes ago):

KSEA 231153Z 00000KT 10SM CLR M01/M03 A3012 RMK AO2 SLP210 T10111028 10028 21011 51004

Aviation forecast (TAF) for Seattle Tacoma International Airport

Retrieved 2021/01/23 12:40 UTC (0 seconds ago):

TAF KSEA 231138Z 2312/2418 11006KT P6SM SKC FM231800 19006KT P6SM BKN200 FM240300 19006KT P6SM BKN050 OVC100 FM241100 19006KT P6SM -RA OVC025 FM241500 19006KT P6SM -RA OVC012